sensor_id;sensor_type;location;lat;lon;timestamp;P1;durP1;ratioP1;P2;durP2;ratioP2
3995;SDS011;2012;49.794;9.722;2022-11-09T00:01:37;9.50;;;6.37;;
3995;SDS011;2012;49.794;9.722;2022-11-09T00:04:04;9.40;;;6.43;;
3995;SDS011;2012;49.794;9.722;2022-11-09T00:06:32;6.97;;;5.03;;
3995;SDS011;2012;49.794;9.722;2022-11-09T00:09:00;8.93;;;4.83;;
3995;SDS011;2012;49.794;9.722;2022-11-09T00:11:33;7.20;;;4.40;;
3995;SDS011;2012;49.794;9.722;2022-11-09T00:14:01;6.73;;;4.97;;
3995;SDS011;2012;49.794;9.722;2022-11-09T00:16:28;7.17;;;4.80;;
3995;SDS011;2012;49.794;9.722;2022-11-09T00:18:54;6.70;;;4.13;;
3995;SDS011;2012;49.794;9.722;2022-11-09T00:21:22;6.47;;;4.60;;
3995;SDS011;2012;49.794;9.722;2022-11-09T00:23:49;3.93;;;3.63;;
3995;SDS011;2012;49.794;9.722;2022-11-09T00:26:17;5.27;;;3.70;;
3995;SDS011;2012;49.794;9.722;2022-11-09T00:28:45;12.40;;;6.10;;
3995;SDS011;2012;49.794;9.722;2022-11-09T00:31:13;11.23;;;5.07;;
3995;SDS011;2012;49.794;9.722;2022-11-09T00:33:50;6.17;;;4.47;;
3995;SDS011;2012;49.794;9.722;2022-11-09T00:36:19;7.53;;;4.67;;
3995;SDS011;2012;49.794;9.722;2022-11-09T00:38:47;14.03;;;5.83;;
3995;SDS011;2012;49.794;9.722;2022-11-09T00:41:16;14.53;;;6.00;;
3995;SDS011;2012;49.794;9.722;2022-11-09T00:43:44;7.60;;;5.00;;
3995;SDS011;2012;49.794;9.722;2022-11-09T00:46:11;7.83;;;4.60;;
3995;SDS011;2012;49.794;9.722;2022-11-09T00:48:38;8.50;;;4.57;;
3995;SDS011;2012;49.794;9.722;2022-11-09T00:51:05;9.37;;;4.20;;
3995;SDS011;2012;49.794;9.722;2022-11-09T00:53:32;9.00;;;4.03;;
3995;SDS011;2012;49.794;9.722;2022-11-09T00:58:32;6.30;;;3.90;;
3995;SDS011;2012;49.794;9.722;2022-11-09T01:01:11;6.27;;;4.17;;
3995;SDS011;2012;49.794;9.722;2022-11-09T01:03:39;6.43;;;4.00;;
3995;SDS011;2012;49.794;9.722;2022-11-09T01:06:07;7.47;;;3.97;;
3995;SDS011;2012;49.794;9.722;2022-11-09T01:08:38;11.10;;;4.90;;
3995;SDS011;2012;49.794;9.722;2022-11-09T01:11:05;9.93;;;4.17;;
3995;SDS011;2012;49.794;9.722;2022-11-09T01:13:34;7.10;;;3.80;;
3995;SDS011;2012;49.794;9.722;2022-11-09T01:16:06;8.57;;;4.10;;
3995;SDS011;2012;49.794;9.722;2022-11-09T01:18:35;9.60;;;4.47;;
3995;SDS011;2012;49.794;9.722;2022-11-09T01:21:03;8.00;;;4.20;;
3995;SDS011;2012;49.794;9.722;2022-11-09T01:23:31;6.40;;;3.50;;
3995;SDS011;2012;49.794;9.722;2022-11-09T01:25:59;5.00;;;4.50;;
3995;SDS011;2012;49.794;9.722;2022-11-09T01:28:27;8.73;;;4.73;;
3995;SDS011;2012;49.794;9.722;2022-11-09T01:30:53;6.30;;;4.13;;
3995;SDS011;2012;49.794;9.722;2022-11-09T01:33:20;11.77;;;5.47;;
3995;SDS011;2012;49.794;9.722;2022-11-09T01:35:47;8.17;;;5.30;;
3995;SDS011;2012;49.794;9.722;2022-11-09T01:38:14;7.23;;;5.17;;
3995;SDS011;2012;49.794;9.722;2022-11-09T01:40:41;6.50;;;4.50;;
3995;SDS011;2012;49.794;9.722;2022-11-09T01:45:47;10.03;;;4.90;;
3995;SDS011;2012;49.794;9.722;2022-11-09T01:48:23;15.23;;;7.00;;
3995;SDS011;2012;49.794;9.722;2022-11-09T01:51:17;20.23;;;7.60;;
3995;SDS011;2012;49.794;9.722;2022-11-09T01:53:50;15.97;;;6.10;;
3995;SDS011;2012;49.794;9.722;2022-11-09T01:56:23;9.00;;;5.00;;
3995;SDS011;2012;49.794;9.722;2022-11-09T01:58:54;10.30;;;4.10;;
3995;SDS011;2012;49.794;9.722;2022-11-09T02:01:34;6.00;;;4.70;;
3995;SDS011;2012;49.794;9.722;2022-11-09T02:04:09;8.57;;;5.17;;
3995;SDS011;2012;49.794;9.722;2022-11-09T02:06:56;7.67;;;5.00;;
3995;SDS011;2012;49.794;9.722;2022-11-09T02:09:25;7.93;;;4.90;;
3995;SDS011;2012;49.794;9.722;2022-11-09T02:12:08;7.70;;;5.20;;
3995;SDS011;2012;49.794;9.722;2022-11-09T02:14:36;8.50;;;5.77;;
3995;SDS011;2012;49.794;9.722;2022-11-09T02:17:04;7.27;;;5.13;;
3995;SDS011;2012;49.794;9.722;2022-11-09T02:19:31;10.63;;;4.90;;
3995;SDS011;2012;49.794;9.722;2022-11-09T02:21:58;9.00;;;6.07;;
3995;SDS011;2012;49.794;9.722;2022-11-09T02:24:25;8.30;;;5.60;;
3995;SDS011;2012;49.794;9.722;2022-11-09T02:26:52;9.83;;;5.20;;
3995;SDS011;2012;49.794;9.722;2022-11-09T02:29:21;7.47;;;4.83;;
3995;SDS011;2012;49.794;9.722;2022-11-09T02:31:52;7.00;;;4.97;;
3995;SDS011;2012;49.794;9.722;2022-11-09T02:34:22;6.40;;;4.57;;
3995;SDS011;2012;49.794;9.722;2022-11-09T02:36:49;10.37;;;4.80;;
3995;SDS011;2012;49.794;9.722;2022-11-09T02:39:18;7.20;;;4.50;;
3995;SDS011;2012;49.794;9.722;2022-11-09T02:42:01;8.10;;;5.10;;
3995;SDS011;2012;49.794;9.722;2022-11-09T02:44:37;7.47;;;5.50;;
3995;SDS011;2012;49.794;9.722;2022-11-09T02:47:07;5.43;;;4.77;;
3995;SDS011;2012;49.794;9.722;2022-11-09T02:49:33;10.53;;;4.73;;
3995;SDS011;2012;49.794;9.722;2022-11-09T02:52:00;9.57;;;5.30;;
3995;SDS011;2012;49.794;9.722;2022-11-09T02:54:27;5.40;;;4.43;;
3995;SDS011;2012;49.794;9.722;2022-11-09T02:56:54;6.30;;;3.70;;
3995;SDS011;2012;49.794;9.722;2022-11-09T02:59:21;5.87;;;4.30;;
3995;SDS011;2012;49.794;9.722;2022-11-09T03:01:47;6.50;;;4.67;;
3995;SDS011;2012;49.794;9.722;2022-11-09T03:04:14;7.20;;;4.63;;
3995;SDS011;2012;49.794;9.722;2022-11-09T03:06:41;13.17;;;5.00;;
3995;SDS011;2012;49.794;9.722;2022-11-09T03:09:08;8.70;;;4.70;;
3995;SDS011;2012;49.794;9.722;2022-11-09T03:11:36;8.53;;;4.23;;
3995;SDS011;2012;49.794;9.722;2022-11-09T03:14:04;8.87;;;5.50;;
3995;SDS011;2012;49.794;9.722;2022-11-09T03:16:32;8.50;;;4.63;;
3995;SDS011;2012;49.794;9.722;2022-11-09T03:18:58;6.80;;;5.37;;
3995;SDS011;2012;49.794;9.722;2022-11-09T03:21:25;9.00;;;4.43;;
3995;SDS011;2012;49.794;9.722;2022-11-09T03:23:53;7.63;;;4.10;;
3995;SDS011;2012;49.794;9.722;2022-11-09T03:26:20;9.13;;;3.97;;
3995;SDS011;2012;49.794;9.722;2022-11-09T03:28:47;6.73;;;4.77;;
3995;SDS011;2012;49.794;9.722;2022-11-09T03:31:14;5.70;;;3.87;;
3995;SDS011;2012;49.794;9.722;2022-11-09T03:33:41;11.57;;;5.30;;
3995;SDS011;2012;49.794;9.722;2022-11-09T03:36:07;4.40;;;3.93;;
3995;SDS011;2012;49.794;9.722;2022-11-09T03:38:34;11.07;;;4.77;;
3995;SDS011;2012;49.794;9.722;2022-11-09T03:41:01;9.03;;;4.43;;
3995;SDS011;2012;49.794;9.722;2022-11-09T03:43:28;7.50;;;4.53;;
3995;SDS011;2012;49.794;9.722;2022-11-09T03:45:55;9.83;;;5.00;;
3995;SDS011;2012;49.794;9.722;2022-11-09T03:48:23;4.27;;;3.53;;
3995;SDS011;2012;49.794;9.722;2022-11-09T03:50:49;8.23;;;3.87;;
3995;SDS011;2012;49.794;9.722;2022-11-09T03:53:16;4.13;;;3.60;;
3995;SDS011;2012;49.794;9.722;2022-11-09T03:55:43;4.33;;;3.33;;
3995;SDS011;2012;49.794;9.722;2022-11-09T03:58:10;9.73;;;5.40;;
3995;SDS011;2012;49.794;9.722;2022-11-09T04:00:38;9.63;;;4.13;;
3995;SDS011;2012;49.794;9.722;2022-11-09T04:03:05;10.03;;;3.67;;
3995;SDS011;2012;49.794;9.722;2022-11-09T04:05:32;4.40;;;3.40;;
3995;SDS011;2012;49.794;9.722;2022-11-09T04:07:58;5.30;;;3.10;;
3995;SDS011;2012;49.794;9.722;2022-11-09T04:10:25;4.90;;;3.63;;
3995;SDS011;2012;49.794;9.722;2022-11-09T04:12:52;8.63;;;3.33;;
3995;SDS011;2012;49.794;9.722;2022-11-09T04:15:19;3.80;;;3.30;;
3995;SDS011;2012;49.794;9.722;2022-11-09T04:17:56;8.83;;;3.50;;
3995;SDS011;2012;49.794;9.722;2022-11-09T04:20:25;8.13;;;3.10;;
3995;SDS011;2012;49.794;9.722;2022-11-09T04:22:54;6.13;;;3.27;;
3995;SDS011;2012;49.794;9.722;2022-11-09T04:25:21;7.53;;;5.30;;
3995;SDS011;2012;49.794;9.722;2022-11-09T04:27:52;8.03;;;5.00;;
3995;SDS011;2012;49.794;9.722;2022-11-09T04:30:23;4.80;;;4.13;;
3995;SDS011;2012;49.794;9.722;2022-11-09T04:32:53;7.77;;;3.50;;
3995;SDS011;2012;49.794;9.722;2022-11-09T04:35:21;8.47;;;3.97;;
3995;SDS011;2012;49.794;9.722;2022-11-09T04:37:52;5.83;;;4.63;;
3995;SDS011;2012;49.794;9.722;2022-11-09T04:40:20;5.70;;;4.67;;
3995;SDS011;2012;49.794;9.722;2022-11-09T04:42:48;6.50;;;4.50;;
3995;SDS011;2012;49.794;9.722;2022-11-09T04:45:15;10.40;;;3.97;;
3995;SDS011;2012;49.794;9.722;2022-11-09T04:47:42;6.33;;;4.60;;
3995;SDS011;2012;49.794;9.722;2022-11-09T04:50:09;9.00;;;4.50;;
3995;SDS011;2012;49.794;9.722;2022-11-09T04:52:35;5.53;;;4.47;;
3995;SDS011;2012;49.794;9.722;2022-11-09T04:55:02;9.00;;;5.00;;
3995;SDS011;2012;49.794;9.722;2022-11-09T04:57:30;5.77;;;4.60;;
3995;SDS011;2012;49.794;9.722;2022-11-09T04:59:57;6.90;;;5.87;;
3995;SDS011;2012;49.794;9.722;2022-11-09T05:02:23;4.17;;;3.77;;
3995;SDS011;2012;49.794;9.722;2022-11-09T05:04:50;5.47;;;4.10;;
3995;SDS011;2012;49.794;9.722;2022-11-09T05:07:17;6.80;;;4.30;;
3995;SDS011;2012;49.794;9.722;2022-11-09T05:09:43;13.93;;;4.53;;
3995;SDS011;2012;49.794;9.722;2022-11-09T05:12:13;6.50;;;4.33;;
3995;SDS011;2012;49.794;9.722;2022-11-09T05:14:40;5.10;;;4.10;;
3995;SDS011;2012;49.794;9.722;2022-11-09T05:17:06;5.70;;;4.20;;
3995;SDS011;2012;49.794;9.722;2022-11-09T05:19:34;5.67;;;3.73;;
3995;SDS011;2012;49.794;9.722;2022-11-09T05:22:00;6.50;;;4.47;;
3995;SDS011;2012;49.794;9.722;2022-11-09T05:24:47;6.80;;;3.83;;
3995;SDS011;2012;49.794;9.722;2022-11-09T05:27:16;7.37;;;4.47;;
3995;SDS011;2012;49.794;9.722;2022-11-09T05:29:43;5.73;;;3.90;;
3995;SDS011;2012;49.794;9.722;2022-11-09T05:32:10;10.77;;;4.70;;
3995;SDS011;2012;49.794;9.722;2022-11-09T05:34:37;3.60;;;3.30;;
3995;SDS011;2012;49.794;9.722;2022-11-09T05:37:03;6.80;;;4.60;;
3995;SDS011;2012;49.794;9.722;2022-11-09T05:39:30;5.17;;;4.67;;
3995;SDS011;2012;49.794;9.722;2022-11-09T05:41:57;6.83;;;4.70;;
3995;SDS011;2012;49.794;9.722;2022-11-09T05:44:23;15.93;;;6.27;;
3995;SDS011;2012;49.794;9.722;2022-11-09T05:46:50;6.40;;;4.33;;
3995;SDS011;2012;49.794;9.722;2022-11-09T05:49:17;7.70;;;5.50;;
3995;SDS011;2012;49.794;9.722;2022-11-09T05:51:44;15.10;;;7.50;;
3995;SDS011;2012;49.794;9.722;2022-11-09T05:54:10;9.20;;;6.47;;
3995;SDS011;2012;49.794;9.722;2022-11-09T05:56:37;10.50;;;5.30;;
3995;SDS011;2012;49.794;9.722;2022-11-09T05:59:04;10.07;;;5.87;;
3995;SDS011;2012;49.794;9.722;2022-11-09T06:01:31;8.10;;;5.83;;
3995;SDS011;2012;49.794;9.722;2022-11-09T06:03:57;7.10;;;5.47;;
3995;SDS011;2012;49.794;9.722;2022-11-09T06:06:24;7.70;;;5.30;;
3995;SDS011;2012;49.794;9.722;2022-11-09T06:08:51;8.30;;;5.60;;
3995;SDS011;2012;49.794;9.722;2022-11-09T06:11:17;10.80;;;5.00;;
3995;SDS011;2012;49.794;9.722;2022-11-09T06:13:50;8.57;;;5.03;;
3995;SDS011;2012;49.794;9.722;2022-11-09T06:16:17;6.37;;;5.27;;
3995;SDS011;2012;49.794;9.722;2022-11-09T06:18:44;8.97;;;4.90;;
3995;SDS011;2012;49.794;9.722;2022-11-09T06:21:11;13.00;;;5.60;;
3995;SDS011;2012;49.794;9.722;2022-11-09T06:23:38;6.83;;;4.87;;
3995;SDS011;2012;49.794;9.722;2022-11-09T06:26:05;4.97;;;4.10;;
3995;SDS011;2012;49.794;9.722;2022-11-09T06:28:35;8.70;;;4.47;;
3995;SDS011;2012;49.794;9.722;2022-11-09T06:31:03;5.93;;;4.17;;
3995;SDS011;2012;49.794;9.722;2022-11-09T06:33:33;6.10;;;4.40;;
3995;SDS011;2012;49.794;9.722;2022-11-09T06:36:01;6.07;;;4.23;;
3995;SDS011;2012;49.794;9.722;2022-11-09T06:38:29;8.60;;;4.20;;
3995;SDS011;2012;49.794;9.722;2022-11-09T06:40:57;8.10;;;5.10;;
3995;SDS011;2012;49.794;9.722;2022-11-09T06:43:24;10.20;;;5.17;;
3995;SDS011;2012;49.794;9.722;2022-11-09T06:45:52;4.67;;;4.03;;
3995;SDS011;2012;49.794;9.722;2022-11-09T06:48:19;5.77;;;4.60;;
3995;SDS011;2012;49.794;9.722;2022-11-09T06:50:46;6.67;;;4.73;;
3995;SDS011;2012;49.794;9.722;2022-11-09T06:53:14;10.13;;;7.03;;
3995;SDS011;2012;49.794;9.722;2022-11-09T06:55:42;11.27;;;7.17;;
3995;SDS011;2012;49.794;9.722;2022-11-09T06:58:16;12.73;;;8.80;;
3995;SDS011;2012;49.794;9.722;2022-11-09T07:00:43;10.43;;;8.57;;
3995;SDS011;2012;49.794;9.722;2022-11-09T07:03:12;13.97;;;9.77;;
3995;SDS011;2012;49.794;9.722;2022-11-09T07:05:40;10.50;;;6.30;;
3995;SDS011;2012;49.794;9.722;2022-11-09T07:08:07;11.00;;;8.00;;
3995;SDS011;2012;49.794;9.722;2022-11-09T07:10:34;7.17;;;6.00;;
3995;SDS011;2012;49.794;9.722;2022-11-09T07:13:01;10.63;;;5.37;;
3995;SDS011;2012;49.794;9.722;2022-11-09T07:15:31;6.77;;;6.07;;
3995;SDS011;2012;49.794;9.722;2022-11-09T07:17:59;11.40;;;6.17;;
3995;SDS011;2012;49.794;9.722;2022-11-09T07:20:27;7.30;;;5.60;;
3995;SDS011;2012;49.794;9.722;2022-11-09T07:22:55;8.73;;;5.60;;
3995;SDS011;2012;49.794;9.722;2022-11-09T07:25:22;6.37;;;5.70;;
3995;SDS011;2012;49.794;9.722;2022-11-09T07:27:50;13.70;;;5.73;;
3995;SDS011;2012;49.794;9.722;2022-11-09T07:30:17;7.63;;;4.80;;
3995;SDS011;2012;49.794;9.722;2022-11-09T07:32:44;11.67;;;6.23;;
3995;SDS011;2012;49.794;9.722;2022-11-09T07:35:30;6.20;;;5.43;;
3995;SDS011;2012;49.794;9.722;2022-11-09T07:38:00;6.87;;;5.50;;
3995;SDS011;2012;49.794;9.722;2022-11-09T07:40:27;5.67;;;5.10;;
3995;SDS011;2012;49.794;9.722;2022-11-09T07:42:58;7.20;;;4.67;;
3995;SDS011;2012;49.794;9.722;2022-11-09T07:45:26;6.63;;;5.20;;
3995;SDS011;2012;49.794;9.722;2022-11-09T07:47:55;5.37;;;4.63;;
3995;SDS011;2012;49.794;9.722;2022-11-09T07:50:22;8.23;;;4.70;;
3995;SDS011;2012;49.794;9.722;2022-11-09T07:52:49;5.93;;;4.20;;
3995;SDS011;2012;49.794;9.722;2022-11-09T07:55:16;7.00;;;5.17;;
3995;SDS011;2012;49.794;9.722;2022-11-09T07:57:43;4.53;;;3.60;;
3995;SDS011;2012;49.794;9.722;2022-11-09T08:00:12;7.33;;;5.00;;
3995;SDS011;2012;49.794;9.722;2022-11-09T08:02:42;4.97;;;4.17;;
3995;SDS011;2012;49.794;9.722;2022-11-09T08:05:13;8.10;;;4.20;;
3995;SDS011;2012;49.794;9.722;2022-11-09T08:07:40;6.27;;;3.60;;
3995;SDS011;2012;49.794;9.722;2022-11-09T08:10:07;4.40;;;4.00;;
3995;SDS011;2012;49.794;9.722;2022-11-09T08:12:34;4.33;;;3.93;;
3995;SDS011;2012;49.794;9.722;2022-11-09T08:15:03;4.73;;;4.17;;
3995;SDS011;2012;49.794;9.722;2022-11-09T08:17:31;6.00;;;3.97;;
3995;SDS011;2012;49.794;9.722;2022-11-09T08:19:58;4.50;;;4.10;;
3995;SDS011;2012;49.794;9.722;2022-11-09T08:22:24;4.50;;;4.10;;
3995;SDS011;2012;49.794;9.722;2022-11-09T08:24:51;5.47;;;4.63;;
3995;SDS011;2012;49.794;9.722;2022-11-09T08:27:18;3.57;;;3.27;;
3995;SDS011;2012;49.794;9.722;2022-11-09T08:29:44;6.93;;;4.10;;
3995;SDS011;2012;49.794;9.722;2022-11-09T08:32:11;4.90;;;4.27;;
3995;SDS011;2012;49.794;9.722;2022-11-09T08:34:38;4.97;;;3.87;;
3995;SDS011;2012;49.794;9.722;2022-11-09T08:37:05;3.07;;;2.87;;
3995;SDS011;2012;49.794;9.722;2022-11-09T08:39:31;9.37;;;3.30;;
3995;SDS011;2012;49.794;9.722;2022-11-09T08:41:58;6.27;;;2.77;;
3995;SDS011;2012;49.794;9.722;2022-11-09T08:44:25;6.23;;;3.63;;
3995;SDS011;2012;49.794;9.722;2022-11-09T08:46:51;3.17;;;2.80;;
3995;SDS011;2012;49.794;9.722;2022-11-09T08:49:18;4.60;;;3.63;;
3995;SDS011;2012;49.794;9.722;2022-11-09T08:51:45;4.40;;;2.23;;
3995;SDS011;2012;49.794;9.722;2022-11-09T08:54:11;8.70;;;2.90;;
3995;SDS011;2012;49.794;9.722;2022-11-09T08:56:40;3.60;;;2.63;;
3995;SDS011;2012;49.794;9.722;2022-11-09T08:59:06;5.60;;;3.17;;
3995;SDS011;2012;49.794;9.722;2022-11-09T09:01:33;4.23;;;3.80;;
3995;SDS011;2012;49.794;9.722;2022-11-09T09:04:00;5.13;;;3.60;;
3995;SDS011;2012;49.794;9.722;2022-11-09T09:06:26;2.90;;;2.70;;
3995;SDS011;2012;49.794;9.722;2022-11-09T09:08:56;3.37;;;2.40;;
3995;SDS011;2012;49.794;9.722;2022-11-09T09:11:23;3.33;;;2.13;;
3995;SDS011;2012;49.794;9.722;2022-11-09T09:13:50;3.40;;;1.97;;
3995;SDS011;2012;49.794;9.722;2022-11-09T09:16:16;3.57;;;1.93;;
3995;SDS011;2012;49.794;9.722;2022-11-09T09:18:43;2.40;;;2.23;;
3995;SDS011;2012;49.794;9.722;2022-11-09T09:21:13;1.73;;;1.63;;
3995;SDS011;2012;49.794;9.722;2022-11-09T09:23:40;2.33;;;2.00;;
3995;SDS011;2012;49.794;9.722;2022-11-09T09:26:06;3.40;;;1.70;;
3995;SDS011;2012;49.794;9.722;2022-11-09T09:28:33;2.20;;;1.77;;
3995;SDS011;2012;49.794;9.722;2022-11-09T09:31:00;2.40;;;2.20;;
3995;SDS011;2012;49.794;9.722;2022-11-09T09:33:27;2.53;;;2.40;;
3995;SDS011;2012;49.794;9.722;2022-11-09T09:35:55;3.60;;;2.20;;
3995;SDS011;2012;49.794;9.722;2022-11-09T09:38:23;2.60;;;2.40;;
3995;SDS011;2012;49.794;9.722;2022-11-09T09:41:00;2.73;;;2.53;;
3995;SDS011;2012;49.794;9.722;2022-11-09T09:43:34;2.50;;;2.30;;
3995;SDS011;2012;49.794;9.722;2022-11-09T09:48:42;2.10;;;1.90;;
3995;SDS011;2012;49.794;9.722;2022-11-09T09:53:46;1.67;;;1.57;;
3995;SDS011;2012;49.794;9.722;2022-11-09T09:56:37;7.60;;;2.00;;
3995;SDS011;2012;49.794;9.722;2022-11-09T10:01:42;3.20;;;2.13;;
3995;SDS011;2012;49.794;9.722;2022-11-09T10:12:40;2.27;;;1.90;;
3995;SDS011;2012;49.794;9.722;2022-11-09T10:15:26;2.60;;;1.30;;
3995;SDS011;2012;49.794;9.722;2022-11-09T10:24:26;1.43;;;1.33;;
3995;SDS011;2012;49.794;9.722;2022-11-09T10:27:21;2.47;;;1.57;;
3995;SDS011;2012;49.794;9.722;2022-11-09T10:30:06;2.57;;;1.57;;
3995;SDS011;2012;49.794;9.722;2022-11-09T10:32:40;2.53;;;1.70;;
3995;SDS011;2012;49.794;9.722;2022-11-09T10:37:43;1.30;;;1.20;;
3995;SDS011;2012;49.794;9.722;2022-11-09T10:40:16;2.17;;;1.70;;
3995;SDS011;2012;49.794;9.722;2022-11-09T10:42:55;1.53;;;1.37;;
3995;SDS011;2012;49.794;9.722;2022-11-09T10:45:29;1.67;;;1.17;;
3995;SDS011;2012;49.794;9.722;2022-11-09T10:47:58;1.67;;;1.20;;
3995;SDS011;2012;49.794;9.722;2022-11-09T10:55:36;2.07;;;1.30;;
3995;SDS011;2012;49.794;9.722;2022-11-09T11:00:55;0.90;;;0.90;;
3995;SDS011;2012;49.794;9.722;2022-11-09T11:03:39;1.10;;;1.00;;
3995;SDS011;2012;49.794;9.722;2022-11-09T11:06:14;1.30;;;1.13;;
3995;SDS011;2012;49.794;9.722;2022-11-09T11:08:42;1.70;;;1.07;;
3995;SDS011;2012;49.794;9.722;2022-11-09T11:11:24;2.90;;;1.40;;
3995;SDS011;2012;49.794;9.722;2022-11-09T11:14:05;1.20;;;1.07;;
3995;SDS011;2012;49.794;9.722;2022-11-09T11:16:48;1.40;;;1.07;;
3995;SDS011;2012;49.794;9.722;2022-11-09T11:19:51;1.23;;;0.80;;
3995;SDS011;2012;49.794;9.722;2022-11-09T11:24:41;2.87;;;1.30;;
3995;SDS011;2012;49.794;9.722;2022-11-09T11:32:53;1.63;;;1.10;;
3995;SDS011;2012;49.794;9.722;2022-11-09T11:35:31;1.20;;;0.97;;
3995;SDS011;2012;49.794;9.722;2022-11-09T11:38:06;2.00;;;1.47;;
3995;SDS011;2012;49.794;9.722;2022-11-09T11:40:59;4.53;;;1.37;;
3995;SDS011;2012;49.794;9.722;2022-11-09T11:49:19;3.40;;;2.30;;
3995;SDS011;2012;49.794;9.722;2022-11-09T12:00:45;3.90;;;2.13;;
3995;SDS011;2012;49.794;9.722;2022-11-09T12:03:39;14.83;;;4.30;;
3995;SDS011;2012;49.794;9.722;2022-11-09T12:09:14;3.40;;;1.20;;
3995;SDS011;2012;49.794;9.722;2022-11-09T12:12:11;3.23;;;1.40;;
3995;SDS011;2012;49.794;9.722;2022-11-09T12:23:24;1.63;;;1.13;;
3995;SDS011;2012;49.794;9.722;2022-11-09T12:28:52;2.67;;;1.30;;
3995;SDS011;2012;49.794;9.722;2022-11-09T12:31:29;3.03;;;1.27;;
3995;SDS011;2012;49.794;9.722;2022-11-09T12:37:01;4.40;;;1.23;;
3995;SDS011;2012;49.794;9.722;2022-11-09T12:42:14;2.87;;;1.20;;
3995;SDS011;2012;49.794;9.722;2022-11-09T12:47:30;2.53;;;1.20;;
3995;SDS011;2012;49.794;9.722;2022-11-09T12:50:05;2.10;;;1.40;;
3995;SDS011;2012;49.794;9.722;2022-11-09T12:52:38;3.67;;;1.43;;
3995;SDS011;2012;49.794;9.722;2022-11-09T12:58:27;1.50;;;1.03;;
3995;SDS011;2012;49.794;9.722;2022-11-09T13:00:56;1.13;;;1.03;;
3995;SDS011;2012;49.794;9.722;2022-11-09T13:03:26;1.77;;;1.47;;
3995;SDS011;2012;49.794;9.722;2022-11-09T13:08:42;5.50;;;3.13;;
3995;SDS011;2012;49.794;9.722;2022-11-09T13:11:21;1.30;;;1.20;;
3995;SDS011;2012;49.794;9.722;2022-11-09T13:22:01;3.67;;;1.40;;
3995;SDS011;2012;49.794;9.722;2022-11-09T13:33:14;3.83;;;2.00;;
3995;SDS011;2012;49.794;9.722;2022-11-09T13:38:14;9.50;;;4.70;;
3995;SDS011;2012;49.794;9.722;2022-11-09T13:40:57;5.60;;;2.63;;
3995;SDS011;2012;49.794;9.722;2022-11-09T13:43:28;3.50;;;3.00;;
3995;SDS011;2012;49.794;9.722;2022-11-09T13:46:44;3.17;;;2.20;;
3995;SDS011;2012;49.794;9.722;2022-11-09T13:48:53;2.00;;;1.60;;
3995;SDS011;2012;49.794;9.722;2022-11-09T13:52:21;5.40;;;1.60;;
3995;SDS011;2012;49.794;9.722;2022-11-09T13:54:28;2.80;;;1.50;;
3995;SDS011;2012;49.794;9.722;2022-11-09T13:57:02;3.33;;;1.40;;
3995;SDS011;2012;49.794;9.722;2022-11-09T13:59:36;4.50;;;1.93;;
3995;SDS011;2012;49.794;9.722;2022-11-09T14:02:14;5.20;;;2.10;;
3995;SDS011;2012;49.794;9.722;2022-11-09T14:04:43;5.93;;;2.50;;
3995;SDS011;2012;49.794;9.722;2022-11-09T14:15:54;3.43;;;2.37;;
3995;SDS011;2012;49.794;9.722;2022-11-09T14:18:45;4.27;;;2.50;;
3995;SDS011;2012;49.794;9.722;2022-11-09T14:21:48;5.90;;;2.50;;
3995;SDS011;2012;49.794;9.722;2022-11-09T14:24:18;3.13;;;1.50;;
3995;SDS011;2012;49.794;9.722;2022-11-09T14:29:37;2.53;;;2.00;;
3995;SDS011;2012;49.794;9.722;2022-11-09T14:32:20;5.00;;;2.27;;
3995;SDS011;2012;49.794;9.722;2022-11-09T14:34:52;2.33;;;1.80;;
3995;SDS011;2012;49.794;9.722;2022-11-09T14:37:35;2.90;;;1.70;;
3995;SDS011;2012;49.794;9.722;2022-11-09T14:40:02;22.83;;;2.63;;
3995;SDS011;2012;49.794;9.722;2022-11-09T14:42:29;4.67;;;2.30;;
3995;SDS011;2012;49.794;9.722;2022-11-09T14:44:56;4.03;;;2.00;;
3995;SDS011;2012;49.794;9.722;2022-11-09T14:47:27;1.83;;;1.53;;
3995;SDS011;2012;49.794;9.722;2022-11-09T14:49:57;8.33;;;2.60;;
3995;SDS011;2012;49.794;9.722;2022-11-09T14:52:26;5.27;;;3.20;;
3995;SDS011;2012;49.794;9.722;2022-11-09T14:54:54;3.50;;;2.10;;
3995;SDS011;2012;49.794;9.722;2022-11-09T14:57:21;5.23;;;2.10;;
3995;SDS011;2012;49.794;9.722;2022-11-09T14:59:49;11.63;;;2.03;;
3995;SDS011;2012;49.794;9.722;2022-11-09T15:02:17;3.77;;;1.47;;
3995;SDS011;2012;49.794;9.722;2022-11-09T15:07:32;4.67;;;1.63;;
3995;SDS011;2012;49.794;9.722;2022-11-09T15:10:00;2.90;;;1.70;;
3995;SDS011;2012;49.794;9.722;2022-11-09T15:12:31;4.13;;;2.33;;
3995;SDS011;2012;49.794;9.722;2022-11-09T15:14:59;5.27;;;2.43;;
3995;SDS011;2012;49.794;9.722;2022-11-09T15:17:43;5.47;;;1.93;;
3995;SDS011;2012;49.794;9.722;2022-11-09T15:22:42;3.37;;;1.17;;
3995;SDS011;2012;49.794;9.722;2022-11-09T15:35:55;3.93;;;1.20;;
3995;SDS011;2012;49.794;9.722;2022-11-09T15:38:27;13.03;;;2.00;;
3995;SDS011;2012;49.794;9.722;2022-11-09T15:40:57;1.93;;;1.37;;
3995;SDS011;2012;49.794;9.722;2022-11-09T15:43:24;1.53;;;1.20;;
3995;SDS011;2012;49.794;9.722;2022-11-09T15:45:52;4.00;;;1.73;;
3995;SDS011;2012;49.794;9.722;2022-11-09T15:48:20;2.70;;;1.53;;
3995;SDS011;2012;49.794;9.722;2022-11-09T15:50:47;6.37;;;1.70;;
3995;SDS011;2012;49.794;9.722;2022-11-09T15:53:14;4.73;;;1.80;;
3995;SDS011;2012;49.794;9.722;2022-11-09T15:55:41;3.10;;;1.97;;
3995;SDS011;2012;49.794;9.722;2022-11-09T15:58:16;5.00;;;1.70;;
3995;SDS011;2012;49.794;9.722;2022-11-09T16:00:44;3.53;;;1.77;;
3995;SDS011;2012;49.794;9.722;2022-11-09T16:03:11;4.93;;;2.00;;
3995;SDS011;2012;49.794;9.722;2022-11-09T16:05:38;2.33;;;1.80;;
3995;SDS011;2012;49.794;9.722;2022-11-09T16:08:05;3.90;;;1.50;;
3995;SDS011;2012;49.794;9.722;2022-11-09T16:10:33;2.97;;;2.50;;
3995;SDS011;2012;49.794;9.722;2022-11-09T16:13:03;6.30;;;2.40;;
3995;SDS011;2012;49.794;9.722;2022-11-09T16:15:32;1.97;;;1.17;;
3995;SDS011;2012;49.794;9.722;2022-11-09T16:18:00;6.27;;;2.87;;
3995;SDS011;2012;49.794;9.722;2022-11-09T16:20:27;2.50;;;1.63;;
3995;SDS011;2012;49.794;9.722;2022-11-09T16:22:54;4.70;;;2.30;;
3995;SDS011;2012;49.794;9.722;2022-11-09T16:25:21;2.73;;;2.50;;
3995;SDS011;2012;49.794;9.722;2022-11-09T16:27:48;2.30;;;2.07;;
3995;SDS011;2012;49.794;9.722;2022-11-09T16:30:16;1.80;;;1.50;;
3995;SDS011;2012;49.794;9.722;2022-11-09T16:32:44;2.33;;;1.40;;
3995;SDS011;2012;49.794;9.722;2022-11-09T16:35:11;3.10;;;1.83;;
3995;SDS011;2012;49.794;9.722;2022-11-09T16:37:52;1.93;;;1.47;;
3995;SDS011;2012;49.794;9.722;2022-11-09T16:40:20;7.13;;;5.10;;
3995;SDS011;2012;49.794;9.722;2022-11-09T16:42:48;5.80;;;2.97;;
3995;SDS011;2012;49.794;9.722;2022-11-09T16:45:16;3.53;;;2.17;;
3995;SDS011;2012;49.794;9.722;2022-11-09T16:47:45;4.30;;;1.97;;
3995;SDS011;2012;49.794;9.722;2022-11-09T16:50:17;4.80;;;1.93;;
3995;SDS011;2012;49.794;9.722;2022-11-09T16:52:44;3.57;;;1.20;;
3995;SDS011;2012;49.794;9.722;2022-11-09T16:55:11;2.77;;;1.60;;
3995;SDS011;2012;49.794;9.722;2022-11-09T16:57:38;4.23;;;1.53;;
3995;SDS011;2012;49.794;9.722;2022-11-09T17:00:05;4.37;;;1.60;;
3995;SDS011;2012;49.794;9.722;2022-11-09T17:02:33;7.17;;;1.50;;
3995;SDS011;2012;49.794;9.722;2022-11-09T17:05:00;3.67;;;1.83;;
3995;SDS011;2012;49.794;9.722;2022-11-09T17:07:27;4.03;;;1.57;;
3995;SDS011;2012;49.794;9.722;2022-11-09T17:09:53;6.10;;;1.57;;
3995;SDS011;2012;49.794;9.722;2022-11-09T17:12:20;3.70;;;1.97;;
3995;SDS011;2012;49.794;9.722;2022-11-09T17:14:47;9.30;;;2.50;;
3995;SDS011;2012;49.794;9.722;2022-11-09T17:17:14;8.07;;;2.47;;
3995;SDS011;2012;49.794;9.722;2022-11-09T17:19:47;5.43;;;2.23;;
3995;SDS011;2012;49.794;9.722;2022-11-09T17:22:14;3.80;;;2.00;;
3995;SDS011;2012;49.794;9.722;2022-11-09T17:24:41;4.40;;;2.30;;
3995;SDS011;2012;49.794;9.722;2022-11-09T17:27:08;4.20;;;1.83;;
3995;SDS011;2012;49.794;9.722;2022-11-09T17:29:36;2.50;;;1.43;;
3995;SDS011;2012;49.794;9.722;2022-11-09T17:32:04;3.30;;;1.40;;
3995;SDS011;2012;49.794;9.722;2022-11-09T17:34:32;6.43;;;1.80;;
3995;SDS011;2012;49.794;9.722;2022-11-09T17:37:00;3.80;;;2.10;;
3995;SDS011;2012;49.794;9.722;2022-11-09T17:39:30;4.80;;;1.77;;
3995;SDS011;2012;49.794;9.722;2022-11-09T17:41:58;3.87;;;1.17;;
3995;SDS011;2012;49.794;9.722;2022-11-09T17:44:24;2.53;;;1.87;;
3995;SDS011;2012;49.794;9.722;2022-11-09T17:46:51;2.90;;;2.10;;
3995;SDS011;2012;49.794;9.722;2022-11-09T17:49:18;6.33;;;1.70;;